createdAt,value
2019-01-13T03:16:15.839Z,7.50
2019-01-13T03:18:45.098Z,7.50
2019-01-13T03:21:14.348Z,7.40
2019-01-13T03:23:44.317Z,7.40
2019-01-13T03:26:13.902Z,7.40
2019-01-13T03:28:43.159Z,7.30
2019-01-13T03:31:12.784Z,7.30
2019-01-13T03:33:42.571Z,7.30
2019-01-13T03:36:11.868Z,7.30
2019-01-13T03:38:41.136Z,7.30
2019-01-13T03:41:10.402Z,7.30
2019-01-13T03:43:40.046Z,7.30
2019-01-13T03:46:09.279Z,7.40
2019-01-13T03:48:38.710Z,7.40
2019-01-13T03:51:08.630Z,7.40
2019-01-13T03:53:37.956Z,7.40
2019-01-13T03:56:07.326Z,7.40
2019-01-13T03:58:36.872Z,7.40
2019-01-13T04:01:06.881Z,7.40
2019-01-13T04:03:36.175Z,7.40
2019-01-13T04:06:07.659Z,7.40
2019-01-13T04:08:36.935Z,7.30
2019-01-13T04:11:06.206Z,7.30
2019-01-13T04:13:35.499Z,7.30
2019-01-13T04:16:04.875Z,7.30
2019-01-13T04:18:34.169Z,7.30
2019-01-13T04:21:03.530Z,7.40
2019-01-13T04:23:32.829Z,7.40
2019-01-13T04:26:02.068Z,7.40
2019-01-13T04:28:31.315Z,7.40
2019-01-13T04:31:01.180Z,7.40
2019-01-13T04:33:30.472Z,7.40
2019-01-13T04:35:59.827Z,7.40
2019-01-13T04:38:29.128Z,7.40
2019-01-13T04:40:58.412Z,7.40
2019-01-13T04:43:27.848Z,7.40
2019-01-13T04:45:57.141Z,7.50
2019-01-13T04:48:26.964Z,7.50
2019-01-13T04:50:56.263Z,7.50
2019-01-13T04:53:25.906Z,7.50
2019-01-13T04:55:55.352Z,7.50
2019-01-13T04:58:24.876Z,7.50
2019-01-13T05:00:54.185Z,7.60
2019-01-13T05:03:24.051Z,7.60
2019-01-13T05:05:53.643Z,7.60
2019-01-13T05:08:22.891Z,7.50
2019-01-13T05:10:52.204Z,7.60
2019-01-13T05:13:22.067Z,7.60
2019-01-13T05:15:52.283Z,7.60
2019-01-13T05:18:21.573Z,7.50
2019-01-13T05:20:50.863Z,7.50
2019-01-13T05:23:20.116Z,7.50
2019-01-13T05:25:49.368Z,7.50
2019-01-13T05:28:18.666Z,7.60
2019-01-13T05:30:48.628Z,7.60
2019-01-13T05:33:18.443Z,7.60
2019-01-13T05:35:47.736Z,7.70
2019-01-13T05:38:17.056Z,7.70
2019-01-13T05:40:47.100Z,7.60
2019-01-13T05:43:16.920Z,7.60
2019-01-13T05:45:46.461Z,7.70
2019-01-13T05:48:16.475Z,7.60
2019-01-13T05:50:46.338Z,7.60
2019-01-13T05:53:16.004Z,7.60
2019-01-13T05:55:45.420Z,7.70
2019-01-13T05:58:15.284Z,7.80
2019-01-13T06:00:45.145Z,7.70
2019-01-13T06:03:14.392Z,7.70
2019-01-13T06:05:43.684Z,7.80
2019-01-13T06:08:12.932Z,7.80
2019-01-13T06:10:42.892Z,7.80
2019-01-13T06:13:13.013Z,7.70
2019-01-13T06:15:42.344Z,7.70
2019-01-13T06:18:12.777Z,7.60
2019-01-13T06:20:42.073Z,7.70
2019-01-13T06:23:12.503Z,7.70
2019-01-13T06:25:42.419Z,7.80
2019-01-13T06:28:12.167Z,7.80
2019-01-13T06:30:41.413Z,7.80
2019-01-13T06:33:11.231Z,7.70
2019-01-13T06:35:41.281Z,7.70
2019-01-13T06:38:10.532Z,7.70
2019-01-13T06:40:39.780Z,7.70
2019-01-13T06:43:09.305Z,7.60
2019-01-13T06:45:38.553Z,7.60
2019-01-13T06:48:07.843Z,7.60
2019-01-13T06:50:37.087Z,7.60
2019-01-13T06:53:06.376Z,7.70
2019-01-13T06:55:36.667Z,7.70
2019-01-13T06:58:06.483Z,7.60
2019-01-13T07:00:35.787Z,7.60
2019-01-13T07:03:05.120Z,7.60
2019-01-13T07:05:34.408Z,7.60
2019-01-13T07:08:03.900Z,7.70
2019-01-13T07:10:33.603Z,7.70
2019-01-13T07:13:02.847Z,7.70
2019-01-13T07:15:32.992Z,7.70
2019-01-13T07:18:02.907Z,7.80
2019-01-13T07:20:32.199Z,7.90
2019-01-13T07:23:01.448Z,7.90
2019-01-13T07:25:30.819Z,7.90
2019-01-13T07:28:00.116Z,7.90
2019-01-13T07:30:30.754Z,7.90
2019-01-13T07:33:00.047Z,7.90
2019-01-13T07:35:29.552Z,7.90
2019-01-13T07:37:58.843Z,8.00
2019-01-13T07:40:28.135Z,8.00
2019-01-13T07:42:57.392Z,7.90
2019-01-13T07:45:28.499Z,7.90
2019-01-13T07:47:57.796Z,7.80
2019-01-13T07:50:27.612Z,7.70
2019-01-13T07:52:56.863Z,7.60
2019-01-13T07:55:26.163Z,7.60
2019-01-13T07:57:55.415Z,7.50
2019-01-13T08:00:29.323Z,7.50
2019-01-13T08:02:59.615Z,7.50
2019-01-13T08:05:28.923Z,7.60
2019-01-13T08:07:58.846Z,7.60
2019-01-13T08:10:28.101Z,7.60
2019-01-13T08:12:57.407Z,7.70
2019-01-13T08:15:26.676Z,7.70
2019-01-13T08:17:56.006Z,7.60
2019-01-13T08:20:26.940Z,7.70
2019-01-13T08:22:56.519Z,7.70
2019-01-13T08:25:26.443Z,7.60
2019-01-13T08:27:55.740Z,7.50
2019-01-13T08:30:25.651Z,7.50
2019-01-13T08:32:56.211Z,7.60
2019-01-13T08:35:25.487Z,7.50
2019-01-13T08:37:55.408Z,7.60
2019-01-13T08:40:25.299Z,7.50
2019-01-13T08:42:54.548Z,7.50
2019-01-13T08:45:24.430Z,7.50
2019-01-13T08:47:54.248Z,7.50
2019-01-13T08:50:23.497Z,7.60
2019-01-13T08:52:53.265Z,7.70
2019-01-13T08:55:22.508Z,7.70
2019-01-13T08:57:52.068Z,7.80
2019-01-13T09:00:26.552Z,7.80
2019-01-13T09:02:55.868Z,7.80
2019-01-13T09:05:25.603Z,7.80
2019-01-13T09:07:54.875Z,7.90
2019-01-13T09:10:24.187Z,7.90
2019-01-13T09:12:56.927Z,8.00
2019-01-13T09:15:25.892Z,8.00
2019-01-13T09:17:55.795Z,8.00
2019-01-13T09:20:27.015Z,7.90
2019-01-13T09:22:57.335Z,7.80
2019-01-13T09:25:26.875Z,8.00
2019-01-13T09:27:56.123Z,8.10
2019-01-13T09:30:27.519Z,8.10
2019-01-13T09:32:56.760Z,8.10
2019-01-13T09:35:26.379Z,8.00
2019-01-13T09:37:55.668Z,8.00
2019-01-13T09:40:26.895Z,8.00
2019-01-13T09:42:56.532Z,8.10
2019-01-13T09:45:25.778Z,8.20
2019-01-13T09:47:55.144Z,8.10
2019-01-13T09:50:24.759Z,8.20
2019-01-13T09:52:55.022Z,8.20
2019-01-13T09:55:24.848Z,8.20
2019-01-13T09:57:54.453Z,8.20
2019-01-13T10:00:28.604Z,8.20
2019-01-13T10:02:57.906Z,8.20
2019-01-13T10:05:27.826Z,8.10
2019-01-13T10:07:57.072Z,8.10
2019-01-13T10:10:26.385Z,8.10
2019-01-13T10:12:55.632Z,8.10
2019-01-13T10:15:26.265Z,8.20
2019-01-13T10:17:55.504Z,8.30
2019-01-13T10:20:26.435Z,8.30
2019-01-13T10:22:55.680Z,8.30
2019-01-13T10:25:25.269Z,8.20
2019-01-13T10:27:54.555Z,8.10
2019-01-13T10:30:26.703Z,8.20
2019-01-13T10:32:56.588Z,8.20
2019-01-13T10:35:26.164Z,8.20
2019-01-13T10:37:55.528Z,8.30
2019-01-13T10:40:26.703Z,8.30
2019-01-13T10:42:55.995Z,8.30
2019-01-13T10:45:25.468Z,8.30
2019-01-13T10:47:55.284Z,8.20
2019-01-13T10:50:27.151Z,8.20
2019-01-13T10:52:58.479Z,8.10
2019-01-13T10:55:28.705Z,8.20
2019-01-13T10:57:57.990Z,8.20
2019-01-13T11:00:30.198Z,8.20
2019-01-13T11:03:02.425Z,8.40
2019-01-13T11:05:30.944Z,8.40
2019-01-13T11:08:00.235Z,8.40
2019-01-13T11:10:29.532Z,8.40
2019-01-13T11:13:00.060Z,8.40
2019-01-13T11:15:29.924Z,8.50
2019-01-13T11:17:59.181Z,8.60
2019-01-13T11:20:33.355Z,8.60
2019-01-13T11:23:03.236Z,8.50
2019-01-13T11:25:33.604Z,8.50
2019-01-13T11:28:02.857Z,8.50
2019-01-13T11:30:32.148Z,8.50
2019-01-13T11:33:09.109Z,8.60
2019-01-13T11:35:33.224Z,8.60
2019-01-13T11:38:02.529Z,8.60
2019-01-13T11:40:31.784Z,8.70
2019-01-13T11:43:01.032Z,8.70
2019-01-13T11:45:30.327Z,8.60
2019-01-13T11:47:59.617Z,8.60
2019-01-13T11:50:28.931Z,8.70
2019-01-13T11:52:58.241Z,8.70
2019-01-13T11:55:28.223Z,8.70
2019-01-13T11:57:57.896Z,8.80
2019-01-13T12:00:33.441Z,8.80
2019-01-13T12:03:06.510Z,8.70
2019-01-13T12:05:33.684Z,8.60
2019-01-13T12:08:02.928Z,8.70
2019-01-13T12:10:32.285Z,8.70
2019-01-13T12:13:01.692Z,8.70
2019-01-13T12:15:31.604Z,8.70
2019-01-13T12:18:02.441Z,8.80
2019-01-13T12:20:31.692Z,8.80
2019-01-13T12:23:00.985Z,9.00
2019-01-13T12:25:30.228Z,8.90
2019-01-13T12:27:59.480Z,9.00
2019-01-13T12:30:30.507Z,9.10
2019-01-13T12:33:00.399Z,9.00
2019-01-13T12:35:30.523Z,9.00
2019-01-13T12:38:00.403Z,9.10
2019-01-13T12:40:30.969Z,9.00
2019-01-13T12:43:01.295Z,9.00
2019-01-13T12:45:31.519Z,9.00
2019-01-13T12:48:01.271Z,9.00
2019-01-13T12:50:30.905Z,9.10
2019-01-13T12:53:00.548Z,9.20
2019-01-13T12:55:30.411Z,9.20
2019-01-13T12:58:00.280Z,9.20
2019-01-13T13:00:29.785Z,9.30
2019-01-13T13:02:59.087Z,9.20
2019-01-13T13:05:28.336Z,9.20
2019-01-13T13:07:57.588Z,9.20
2019-01-13T13:10:37.988Z,9.20
2019-01-13T13:13:07.246Z,9.30
2019-01-13T13:15:36.550Z,9.40
2019-01-13T13:18:05.799Z,9.30
2019-01-13T13:20:35.117Z,9.30
2019-01-13T13:23:06.299Z,9.40
2019-01-13T13:25:35.805Z,9.40
2019-01-13T13:28:05.119Z,9.50
2019-01-13T13:30:34.359Z,9.40
2019-01-13T13:33:03.656Z,9.40
2019-01-13T13:35:39.648Z,9.40
2019-01-13T13:38:05.999Z,9.50
2019-01-13T13:40:35.608Z,9.50
2019-01-13T13:43:05.004Z,9.40
2019-01-13T13:45:34.522Z,9.30
2019-01-13T13:48:04.177Z,9.40
2019-01-13T13:50:33.500Z,9.40
2019-01-13T13:53:02.735Z,9.50
2019-01-13T13:55:31.987Z,9.50
2019-01-13T13:58:02.258Z,9.50
2019-01-13T14:00:33.606Z,9.50
2019-01-13T14:03:02.908Z,9.50
2019-01-13T14:05:32.216Z,9.40
2019-01-13T14:08:02.133Z,9.50
2019-01-13T14:10:34.491Z,9.50
2019-01-13T14:13:05.249Z,9.40
2019-01-13T14:15:34.939Z,9.40
2019-01-13T14:18:04.188Z,9.50
2019-01-13T14:20:35.493Z,9.60
2019-01-13T14:23:06.372Z,9.60
2019-01-13T14:25:35.936Z,9.70
2019-01-13T14:28:05.543Z,9.70
2019-01-13T14:30:34.855Z,9.70
2019-01-13T14:33:04.273Z,9.60
2019-01-13T14:35:33.520Z,9.60
2019-01-13T14:38:02.837Z,9.60
2019-01-13T14:40:33.179Z,9.60
2019-01-13T14:43:02.999Z,9.70
2019-01-13T14:45:32.877Z,9.70
2019-01-13T14:48:02.124Z,9.70
2019-01-13T14:50:32.585Z,9.70
2019-01-13T14:53:02.393Z,9.70
2019-01-13T14:55:31.695Z,9.60
2019-01-13T14:58:00.948Z,9.70
2019-01-13T15:00:30.568Z,9.50
2019-01-13T15:03:00.543Z,9.50
2019-01-13T15:05:29.792Z,9.50
2019-01-13T15:08:00.109Z,9.50
2019-01-13T15:10:30.029Z,9.50
2019-01-13T15:12:59.344Z,9.40
2019-01-13T15:15:29.956Z,9.50
2019-01-13T15:18:00.080Z,9.40
2019-01-13T15:20:31.039Z,9.50
2019-01-13T15:23:00.360Z,9.60
2019-01-13T15:25:29.929Z,9.40
2019-01-13T15:27:59.300Z,9.50
2019-01-13T15:30:33.684Z,9.50
2019-01-13T15:33:02.983Z,9.60
2019-01-13T15:35:32.227Z,9.60
2019-01-13T15:38:02.072Z,9.50
2019-01-13T15:40:31.853Z,9.60
2019-01-13T15:43:01.487Z,9.70
2019-01-13T15:45:31.402Z,9.70
2019-01-13T15:48:00.941Z,9.60
2019-01-13T15:50:30.423Z,9.60
2019-01-13T15:53:00.352Z,9.60
2019-01-13T15:55:29.597Z,9.70
2019-01-13T15:57:58.894Z,9.70
2019-01-13T16:00:30.332Z,9.60
2019-01-13T16:03:00.158Z,9.40
2019-01-13T16:05:29.407Z,9.50
2019-01-13T16:07:59.306Z,9.50
2019-01-13T16:10:28.560Z,9.50
2019-01-13T16:12:58.231Z,9.50
2019-01-13T16:15:33.940Z,9.40
2019-01-13T16:17:58.672Z,9.40
2019-01-13T16:20:31.020Z,9.40
2019-01-13T16:23:00.327Z,9.40
2019-01-13T16:25:30.138Z,9.50
2019-01-13T16:28:00.117Z,9.50
2019-01-13T16:30:31.353Z,9.50
2019-01-13T16:33:01.278Z,9.50
2019-01-13T16:35:31.546Z,9.50
2019-01-13T16:38:00.795Z,9.40
2019-01-13T16:40:30.618Z,9.30
2019-01-13T16:43:00.192Z,9.30
2019-01-13T16:45:30.624Z,9.30
2019-01-13T16:47:59.946Z,9.30
2019-01-13T16:50:29.936Z,9.40
2019-01-13T16:52:59.339Z,9.40
2019-01-13T16:55:28.633Z,9.40
2019-01-13T16:57:58.147Z,9.40
2019-01-13T17:00:28.703Z,9.40
2019-01-13T17:02:58.695Z,9.40
2019-01-13T17:05:28.719Z,9.40
2019-01-13T17:07:58.526Z,9.50
2019-01-13T17:10:27.763Z,9.60
2019-01-13T17:12:57.079Z,9.60
2019-01-13T17:15:28.820Z,9.70
2019-01-13T17:17:58.070Z,9.60
2019-01-13T17:20:27.400Z,9.50
2019-01-13T17:22:57.001Z,9.40
2019-01-13T17:25:27.287Z,9.30
2019-01-13T17:27:56.608Z,9.30
2019-01-13T17:30:27.994Z,9.30
2019-01-13T17:32:59.121Z,9.30
2019-01-13T17:35:28.728Z,9.30
2019-01-13T17:37:58.040Z,9.30
2019-01-13T17:40:27.905Z,9.30
2019-01-13T17:42:57.791Z,9.30
2019-01-13T17:45:29.077Z,9.10
2019-01-13T17:47:58.468Z,8.90
2019-01-13T17:50:28.289Z,8.90
2019-01-13T17:52:57.606Z,8.90
2019-01-13T17:55:27.997Z,9.00
2019-01-13T17:57:57.294Z,9.20
2019-01-13T18:00:32.607Z,9.20
2019-01-13T18:03:04.912Z,9.20
2019-01-13T18:05:34.159Z,9.20
2019-01-13T18:08:03.456Z,9.10
2019-01-13T18:10:33.268Z,9.20
2019-01-13T18:13:03.243Z,9.10
2019-01-13T18:15:33.062Z,9.20
2019-01-13T18:18:02.339Z,9.20
2019-01-13T18:20:31.928Z,9.20
2019-01-13T18:23:01.847Z,9.10
2019-01-13T18:25:31.759Z,9.10
2019-01-13T18:28:01.629Z,9.00
2019-01-13T18:30:30.874Z,9.10
2019-01-13T18:33:00.840Z,8.90
2019-01-13T18:35:30.727Z,8.60
2019-01-13T18:38:00.111Z,8.00
2019-01-13T18:40:30.673Z,7.80
2019-01-13T18:43:00.332Z,7.70
2019-01-13T18:45:29.610Z,7.70
2019-01-13T18:47:59.072Z,7.50
2019-01-13T18:50:28.664Z,7.40
2019-01-13T18:53:12.437Z,7.50
2019-01-13T18:55:42.915Z,7.60
2019-01-13T18:58:12.244Z,7.60
2019-01-13T19:00:41.487Z,7.70
2019-01-13T19:03:11.050Z,7.60
2019-01-13T19:05:40.352Z,7.50
2019-01-13T19:08:09.966Z,7.60
2019-01-13T19:10:48.324Z,7.60
2019-01-13T19:13:23.788Z,7.70
2019-01-13T19:15:56.380Z,7.70
2019-01-13T19:18:25.627Z,7.70
2019-01-13T19:20:54.881Z,7.80
2019-01-13T19:23:25.803Z,7.80
2019-01-13T19:25:55.051Z,7.90
2019-01-13T19:28:25.056Z,7.90
2019-01-13T19:30:55.379Z,7.90
2019-01-13T19:33:24.658Z,7.90
2019-01-13T19:35:54.707Z,7.80
2019-01-13T19:38:24.307Z,7.90
2019-01-13T19:40:53.553Z,7.90
2019-01-13T19:43:24.107Z,8.00
2019-01-13T19:45:53.352Z,8.00
2019-01-13T19:48:22.999Z,7.90
2019-01-13T19:50:52.460Z,7.90
2019-01-13T19:53:22.063Z,7.90
2019-01-13T19:55:51.311Z,7.90
2019-01-13T19:58:21.129Z,8.00
2019-01-13T20:00:50.787Z,7.90
2019-01-13T20:03:20.291Z,7.80
2019-01-13T20:05:49.541Z,7.80
2019-01-13T20:08:19.099Z,7.90
2019-01-13T20:10:49.326Z,7.90
2019-01-13T20:13:18.614Z,7.80
2019-01-13T20:15:49.052Z,7.80
2019-01-13T20:18:18.299Z,7.90
2019-01-13T20:20:48.164Z,7.90
2019-01-13T20:23:17.415Z,7.80
2019-01-13T20:25:47.284Z,7.90
2019-01-13T20:28:16.580Z,8.00
2019-01-13T20:30:46.540Z,8.00
2019-01-13T20:33:15.831Z,8.00
2019-01-13T20:35:46.023Z,8.00
2019-01-13T20:38:15.329Z,8.20
2019-01-13T20:40:44.832Z,8.20
2019-01-13T20:43:14.340Z,8.10
2019-01-13T20:45:45.583Z,8.00
2019-01-13T20:48:14.875Z,8.00
2019-01-13T20:50:44.121Z,8.10
2019-01-13T20:53:13.411Z,8.10
2019-01-13T20:55:42.664Z,8.00
2019-01-13T20:58:12.482Z,8.00
2019-01-13T21:00:41.767Z,7.90
2019-01-13T21:03:11.064Z,8.00
2019-01-13T21:05:40.355Z,8.10
2019-01-13T21:08:10.254Z,8.10
2019-01-13T21:10:39.545Z,8.10
2019-01-13T21:13:08.844Z,8.00
2019-01-13T21:15:38.093Z,8.10
2019-01-13T21:18:07.380Z,8.10
2019-01-13T21:20:37.251Z,8.00
2019-01-13T21:23:06.499Z,8.00
2019-01-13T21:25:36.315Z,8.10
2019-01-13T21:28:06.273Z,8.00
2019-01-13T21:30:35.572Z,8.10
2019-01-13T21:33:05.182Z,8.00
2019-01-13T21:35:34.466Z,8.00
2019-01-13T21:38:03.724Z,8.10
2019-01-13T21:40:33.015Z,8.10
2019-01-13T21:43:02.881Z,8.20
2019-01-13T21:45:32.126Z,8.10
2019-01-13T21:48:02.617Z,8.10
2019-01-13T21:50:32.855Z,8.20
2019-01-13T21:53:02.154Z,8.20
2019-01-13T21:55:32.122Z,8.10
2019-01-13T21:58:01.679Z,8.00
2019-01-13T22:00:31.183Z,8.10
2019-01-13T22:03:00.497Z,8.10
2019-01-13T22:05:30.708Z,8.00
2019-01-13T22:08:01.099Z,7.90
2019-01-13T22:10:30.356Z,7.90
2019-01-13T22:12:59.672Z,7.90
2019-01-13T22:15:28.910Z,8.00
2019-01-13T22:17:58.895Z,8.10
2019-01-13T22:20:28.183Z,8.10
2019-01-13T22:22:58.380Z,8.00
2019-01-13T22:25:27.987Z,8.00
2019-01-13T22:27:57.849Z,7.80
2019-01-13T22:30:27.095Z,7.80
2019-01-13T22:32:57.482Z,7.80
2019-01-13T22:35:27.280Z,7.90
2019-01-13T22:37:57.365Z,7.90
2019-01-13T22:40:26.667Z,8.00
2019-01-13T22:42:56.630Z,8.00
2019-01-13T22:45:26.733Z,8.00
2019-01-13T22:47:56.007Z,7.90
2019-01-13T22:50:25.823Z,7.80
2019-01-13T22:52:55.120Z,7.80
2019-01-13T22:55:25.104Z,7.70
2019-01-13T22:57:54.395Z,7.80
2019-01-13T23:00:49.443Z,7.80
2019-01-13T23:03:20.012Z,7.80
2019-01-13T23:05:55.554Z,7.80
2019-01-13T23:08:22.241Z,7.90
2019-01-13T23:10:51.488Z,7.90
2019-01-13T23:13:22.271Z,8.00
